sensor_id;sensor_type;location;lat;lon;timestamp;temperature;humidity
38237;DHT22;50101;49.438;11.098;2023-01-10T00:01:49;20.70;63.00
38237;DHT22;50101;49.438;11.098;2023-01-10T00:04:15;20.70;63.20
38237;DHT22;50101;49.438;11.098;2023-01-10T00:06:42;20.70;63.00
38237;DHT22;50101;49.438;11.098;2023-01-10T00:09:09;20.70;63.00
38237;DHT22;50101;49.438;11.098;2023-01-10T00:11:37;20.70;62.80
38237;DHT22;50101;49.438;11.098;2023-01-10T00:14:22;20.70;62.70
38237;DHT22;50101;49.438;11.098;2023-01-10T00:16:49;20.70;62.70
38237;DHT22;50101;49.438;11.098;2023-01-10T00:19:16;20.70;62.70
38237;DHT22;50101;49.438;11.098;2023-01-10T00:21:42;20.70;62.70
38237;DHT22;50101;49.438;11.098;2023-01-10T00:24:10;20.60;62.60
38237;DHT22;50101;49.438;11.098;2023-01-10T00:26:47;20.70;62.70
38237;DHT22;50101;49.438;11.098;2023-01-10T00:29:22;20.70;62.60
38237;DHT22;50101;49.438;11.098;2023-01-10T00:31:50;20.60;62.60
38237;DHT22;50101;49.438;11.098;2023-01-10T00:34:17;20.60;62.50
38237;DHT22;50101;49.438;11.098;2023-01-10T00:36:44;20.60;62.40
38237;DHT22;50101;49.438;11.098;2023-01-10T00:39:13;20.60;62.40
38237;DHT22;50101;49.438;11.098;2023-01-10T00:41:40;20.60;62.20
38237;DHT22;50101;49.438;11.098;2023-01-10T00:44:26;20.60;61.50
38237;DHT22;50101;49.438;11.098;2023-01-10T00:46:53;20.60;62.10
38237;DHT22;50101;49.438;11.098;2023-01-10T00:49:19;20.60;62.10
38237;DHT22;50101;49.438;11.098;2023-01-10T00:51:46;20.60;62.10
38237;DHT22;50101;49.438;11.098;2023-01-10T00:54:13;20.60;62.80
38237;DHT22;50101;49.438;11.098;2023-01-10T00:56:40;20.60;62.10
38237;DHT22;50101;49.438;11.098;2023-01-10T00:59:07;20.60;62.10
38237;DHT22;50101;49.438;11.098;2023-01-10T01:01:34;20.60;61.90
38237;DHT22;50101;49.438;11.098;2023-01-10T01:04:01;20.60;61.90
38237;DHT22;50101;49.438;11.098;2023-01-10T01:06:28;20.60;61.90
38237;DHT22;50101;49.438;11.098;2023-01-10T01:08:54;20.60;61.90
38237;DHT22;50101;49.438;11.098;2023-01-10T01:11:21;20.60;61.90
38237;DHT22;50101;49.438;11.098;2023-01-10T01:13:48;20.50;61.70
38237;DHT22;50101;49.438;11.098;2023-01-10T01:16:16;20.50;61.70
38237;DHT22;50101;49.438;11.098;2023-01-10T01:18:42;20.50;61.60
38237;DHT22;50101;49.438;11.098;2023-01-10T01:21:09;20.50;61.60
38237;DHT22;50101;49.438;11.098;2023-01-10T01:23:36;20.60;61.70
38237;DHT22;50101;49.438;11.098;2023-01-10T01:26:03;20.60;61.60
38237;DHT22;50101;49.438;11.098;2023-01-10T01:28:31;20.50;61.40
38237;DHT22;50101;49.438;11.098;2023-01-10T01:30:58;20.50;61.40
38237;DHT22;50101;49.438;11.098;2023-01-10T01:33:25;20.50;61.50
38237;DHT22;50101;49.438;11.098;2023-01-10T01:35:51;20.50;61.40
38237;DHT22;50101;49.438;11.098;2023-01-10T01:38:18;20.50;61.40
38237;DHT22;50101;49.438;11.098;2023-01-10T01:40:44;20.50;61.40
38237;DHT22;50101;49.438;11.098;2023-01-10T01:43:30;20.50;61.40
38237;DHT22;50101;49.438;11.098;2023-01-10T01:46:00;20.50;61.40
38237;DHT22;50101;49.438;11.098;2023-01-10T01:51:09;20.40;61.20
38237;DHT22;50101;49.438;11.098;2023-01-10T01:53:43;20.40;61.20
38237;DHT22;50101;49.438;11.098;2023-01-10T01:56:22;20.40;61.20
38237;DHT22;50101;49.438;11.098;2023-01-10T02:01:27;20.40;60.50
38237;DHT22;50101;49.438;11.098;2023-01-10T02:04:00;20.40;61.10
38237;DHT22;50101;49.438;11.098;2023-01-10T02:06:28;20.40;60.60
38237;DHT22;50101;49.438;11.098;2023-01-10T02:09:25;20.40;61.20
38237;DHT22;50101;49.438;11.098;2023-01-10T02:11:54;20.30;61.10
38237;DHT22;50101;49.438;11.098;2023-01-10T02:14:23;20.40;61.10
38237;DHT22;50101;49.438;11.098;2023-01-10T02:16:51;20.40;61.10
38237;DHT22;50101;49.438;11.098;2023-01-10T02:34:13;20.30;60.40
38237;DHT22;50101;49.438;11.098;2023-01-10T02:36:56;20.30;61.00
38237;DHT22;50101;49.438;11.098;2023-01-10T02:42:33;20.30;61.00
38237;DHT22;50101;49.438;11.098;2023-01-10T02:45:32;20.30;60.90
38237;DHT22;50101;49.438;11.098;2023-01-10T02:47:59;20.30;61.00
38237;DHT22;50101;49.438;11.098;2023-01-10T02:50:42;20.30;60.90
38237;DHT22;50101;49.438;11.098;2023-01-10T02:53:14;20.20;60.80
38237;DHT22;50101;49.438;11.098;2023-01-10T03:01:12;20.20;60.80
38237;DHT22;50101;49.438;11.098;2023-01-10T03:06:39;20.20;60.80
38237;DHT22;50101;49.438;11.098;2023-01-10T03:09:33;20.20;60.80
38237;DHT22;50101;49.438;11.098;2023-01-10T03:12:12;20.20;60.90
38237;DHT22;50101;49.438;11.098;2023-01-10T03:14:41;20.20;61.00
38237;DHT22;50101;49.438;11.098;2023-01-10T03:17:10;20.20;61.00
38237;DHT22;50101;49.438;11.098;2023-01-10T03:19:43;20.20;60.90
38237;DHT22;50101;49.438;11.098;2023-01-10T03:22:12;20.20;60.80
38237;DHT22;50101;49.438;11.098;2023-01-10T03:24:42;20.10;60.80
38237;DHT22;50101;49.438;11.098;2023-01-10T03:27:19;20.10;60.90
38237;DHT22;50101;49.438;11.098;2023-01-10T03:29:59;20.10;60.80
38237;DHT22;50101;49.438;11.098;2023-01-10T03:32:27;20.20;60.90
38237;DHT22;50101;49.438;11.098;2023-01-10T03:34:56;20.10;60.70
38237;DHT22;50101;49.438;11.098;2023-01-10T03:37:26;20.10;60.80
38237;DHT22;50101;49.438;11.098;2023-01-10T03:40:06;20.10;60.80
38237;DHT22;50101;49.438;11.098;2023-01-10T03:42:55;20.10;60.80
38237;DHT22;50101;49.438;11.098;2023-01-10T03:45:44;20.10;60.90
38237;DHT22;50101;49.438;11.098;2023-01-10T03:48:15;20.10;60.70
38237;DHT22;50101;49.438;11.098;2023-01-10T03:50:43;20.10;60.80
38237;DHT22;50101;49.438;11.098;2023-01-10T03:53:14;20.10;60.80
38237;DHT22;50101;49.438;11.098;2023-01-10T03:55:42;20.10;60.10
38237;DHT22;50101;49.438;11.098;2023-01-10T03:58:10;20.10;60.70
38237;DHT22;50101;49.438;11.098;2023-01-10T04:00:36;20.10;60.80
38237;DHT22;50101;49.438;11.098;2023-01-10T04:03:04;20.10;61.00
38237;DHT22;50101;49.438;11.098;2023-01-10T04:05:31;20.00;60.30
38237;DHT22;50101;49.438;11.098;2023-01-10T04:07:58;20.10;61.00
38237;DHT22;50101;49.438;11.098;2023-01-10T04:10:24;20.10;61.10
38237;DHT22;50101;49.438;11.098;2023-01-10T04:12:52;20.00;61.10
38237;DHT22;50101;49.438;11.098;2023-01-10T04:15:19;20.00;60.50
38237;DHT22;50101;49.438;11.098;2023-01-10T04:17:47;20.00;61.00
38237;DHT22;50101;49.438;11.098;2023-01-10T04:20:14;19.90;60.90
38237;DHT22;50101;49.438;11.098;2023-01-10T04:22:41;20.00;61.20
38237;DHT22;50101;49.438;11.098;2023-01-10T04:25:08;20.00;61.20
38237;DHT22;50101;49.438;11.098;2023-01-10T04:27:34;20.00;61.00
38237;DHT22;50101;49.438;11.098;2023-01-10T04:30:01;20.00;61.00
38237;DHT22;50101;49.438;11.098;2023-01-10T04:32:27;20.00;61.10
38237;DHT22;50101;49.438;11.098;2023-01-10T04:34:54;20.00;61.20
38237;DHT22;50101;49.438;11.098;2023-01-10T04:37:21;20.00;61.30
38237;DHT22;50101;49.438;11.098;2023-01-10T04:39:47;20.00;61.20
38237;DHT22;50101;49.438;11.098;2023-01-10T04:42:15;20.00;61.30
38237;DHT22;50101;49.438;11.098;2023-01-10T04:44:42;20.00;61.20
38237;DHT22;50101;49.438;11.098;2023-01-10T04:47:08;20.00;61.20
38237;DHT22;50101;49.438;11.098;2023-01-10T04:49:35;19.90;61.10
38237;DHT22;50101;49.438;11.098;2023-01-10T04:52:02;19.90;61.10
38237;DHT22;50101;49.438;11.098;2023-01-10T04:54:28;19.90;61.20
38237;DHT22;50101;49.438;11.098;2023-01-10T04:56:55;19.90;61.20
38237;DHT22;50101;49.438;11.098;2023-01-10T04:59:22;19.90;61.20
38237;DHT22;50101;49.438;11.098;2023-01-10T05:01:49;19.90;60.50
38237;DHT22;50101;49.438;11.098;2023-01-10T05:04:16;19.90;61.10
38237;DHT22;50101;49.438;11.098;2023-01-10T05:06:45;19.90;61.10
38237;DHT22;50101;49.438;11.098;2023-01-10T05:09:12;19.90;61.20
38237;DHT22;50101;49.438;11.098;2023-01-10T05:11:38;19.90;61.20
38237;DHT22;50101;49.438;11.098;2023-01-10T05:14:05;19.90;61.20
38237;DHT22;50101;49.438;11.098;2023-01-10T05:16:32;19.90;60.60
38237;DHT22;50101;49.438;11.098;2023-01-10T05:18:58;19.90;61.20
38237;DHT22;50101;49.438;11.098;2023-01-10T05:21:25;19.90;61.40
38237;DHT22;50101;49.438;11.098;2023-01-10T05:23:52;19.90;61.30
38237;DHT22;50101;49.438;11.098;2023-01-10T05:26:21;19.90;61.30
38237;DHT22;50101;49.438;11.098;2023-01-10T05:28:49;19.90;61.40
38237;DHT22;50101;49.438;11.098;2023-01-10T05:31:17;19.90;61.30
38237;DHT22;50101;49.438;11.098;2023-01-10T05:33:49;19.90;61.30
38237;DHT22;50101;49.438;11.098;2023-01-10T05:36:17;19.90;61.30
38237;DHT22;50101;49.438;11.098;2023-01-10T05:38:44;19.90;61.30
38237;DHT22;50101;49.438;11.098;2023-01-10T05:41:11;19.90;61.30
38237;DHT22;50101;49.438;11.098;2023-01-10T05:43:38;19.90;61.30
38237;DHT22;50101;49.438;11.098;2023-01-10T05:46:09;19.90;61.30
38237;DHT22;50101;49.438;11.098;2023-01-10T05:48:58;19.90;61.30
38237;DHT22;50101;49.438;11.098;2023-01-10T05:51:25;19.80;61.10
38237;DHT22;50101;49.438;11.098;2023-01-10T05:53:51;19.80;61.10
38237;DHT22;50101;49.438;11.098;2023-01-10T05:56:18;19.80;61.10
38237;DHT22;50101;49.438;11.098;2023-01-10T05:58:45;19.80;61.10
38237;DHT22;50101;49.438;11.098;2023-01-10T06:01:15;19.80;61.20
38237;DHT22;50101;49.438;11.098;2023-01-10T06:03:42;19.80;61.10
38237;DHT22;50101;49.438;11.098;2023-01-10T06:06:08;19.80;61.10
38237;DHT22;50101;49.438;11.098;2023-01-10T06:08:35;19.80;61.10
38237;DHT22;50101;49.438;11.098;2023-01-10T06:11:06;19.80;61.10
38237;DHT22;50101;49.438;11.098;2023-01-10T06:13:33;19.80;61.10
38237;DHT22;50101;49.438;11.098;2023-01-10T06:16:00;19.70;61.00
38237;DHT22;50101;49.438;11.098;2023-01-10T06:18:27;19.80;61.10
38237;DHT22;50101;49.438;11.098;2023-01-10T06:20:53;19.80;61.10
38237;DHT22;50101;49.438;11.098;2023-01-10T06:23:20;19.80;61.10
38237;DHT22;50101;49.438;11.098;2023-01-10T06:25:47;19.80;61.10
38237;DHT22;50101;49.438;11.098;2023-01-10T06:28:14;19.80;61.10
38237;DHT22;50101;49.438;11.098;2023-01-10T06:30:41;19.80;61.20
38237;DHT22;50101;49.438;11.098;2023-01-10T06:33:10;19.80;61.20
38237;DHT22;50101;49.438;11.098;2023-01-10T06:35:37;19.70;61.20
38237;DHT22;50101;49.438;11.098;2023-01-10T06:38:04;19.70;61.20
38237;DHT22;50101;49.438;11.098;2023-01-10T06:40:31;19.80;61.60
38237;DHT22;50101;49.438;11.098;2023-01-10T06:42:57;19.20;61.20
38237;DHT22;50101;49.438;11.098;2023-01-10T06:45:24;19.80;61.30
38237;DHT22;50101;49.438;11.098;2023-01-10T06:47:51;19.80;61.40
38237;DHT22;50101;49.438;11.098;2023-01-10T06:50:18;19.80;61.20
38237;DHT22;50101;49.438;11.098;2023-01-10T06:55:12;19.80;61.10
38237;DHT22;50101;49.438;11.098;2023-01-10T06:57:38;19.80;61.80
38237;DHT22;50101;49.438;11.098;2023-01-10T07:00:07;19.90;61.90
38237;DHT22;50101;49.438;11.098;2023-01-10T07:02:35;19.80;61.80
38237;DHT22;50101;49.438;11.098;2023-01-10T07:05:02;19.90;62.60
38237;DHT22;50101;49.438;11.098;2023-01-10T07:07:29;19.80;62.90
38237;DHT22;50101;49.438;11.098;2023-01-10T07:09:55;19.90;62.50
38237;DHT22;50101;49.438;11.098;2023-01-10T07:12:22;19.80;62.30
38237;DHT22;50101;49.438;11.098;2023-01-10T07:14:48;19.80;61.90
38237;DHT22;50101;49.438;11.098;2023-01-10T07:17:15;19.80;61.80
38237;DHT22;50101;49.438;11.098;2023-01-10T07:19:42;19.90;62.20
38237;DHT22;50101;49.438;11.098;2023-01-10T07:22:08;19.90;62.50
38237;DHT22;50101;49.438;11.098;2023-01-10T07:24:35;19.90;61.90
38237;DHT22;50101;49.438;11.098;2023-01-10T07:27:02;19.90;61.90
38237;DHT22;50101;49.438;11.098;2023-01-10T07:29:28;19.80;62.00
38237;DHT22;50101;49.438;11.098;2023-01-10T07:31:55;19.80;62.30
38237;DHT22;50101;49.438;11.098;2023-01-10T07:34:22;19.80;62.10
38237;DHT22;50101;49.438;11.098;2023-01-10T07:36:48;19.80;62.60
38237;DHT22;50101;49.438;11.098;2023-01-10T07:39:15;19.80;61.30
38237;DHT22;50101;49.438;11.098;2023-01-10T07:41:41;19.80;61.80
38237;DHT22;50101;49.438;11.098;2023-01-10T07:44:08;19.80;61.10
38237;DHT22;50101;49.438;11.098;2023-01-10T07:46:35;19.80;61.80
38237;DHT22;50101;49.438;11.098;2023-01-10T07:49:02;19.80;62.20
38237;DHT22;50101;49.438;11.098;2023-01-10T07:51:28;19.70;62.10
38237;DHT22;50101;49.438;11.098;2023-01-10T07:53:55;19.80;61.90
38237;DHT22;50101;49.438;11.098;2023-01-10T07:56:21;19.80;61.90
38237;DHT22;50101;49.438;11.098;2023-01-10T07:58:48;19.80;61.80
38237;DHT22;50101;49.438;11.098;2023-01-10T08:01:15;19.90;62.30
38237;DHT22;50101;49.438;11.098;2023-01-10T08:03:42;19.90;62.00
38237;DHT22;50101;49.438;11.098;2023-01-10T08:06:09;19.70;59.90
38237;DHT22;50101;49.438;11.098;2023-01-10T08:08:37;19.80;60.10
38237;DHT22;50101;49.438;11.098;2023-01-10T08:11:04;19.70;60.50
38237;DHT22;50101;49.438;11.098;2023-01-10T08:13:31;19.80;61.10
38237;DHT22;50101;49.438;11.098;2023-01-10T08:15:58;19.70;60.60
38237;DHT22;50101;49.438;11.098;2023-01-10T08:18:25;19.70;60.60
38237;DHT22;50101;49.438;11.098;2023-01-10T08:20:52;19.70;61.00
38237;DHT22;50101;49.438;11.098;2023-01-10T08:23:20;19.80;61.00
38237;DHT22;50101;49.438;11.098;2023-01-10T08:25:47;19.80;61.10
38237;DHT22;50101;49.438;11.098;2023-01-10T08:28:14;19.80;60.70
38237;DHT22;50101;49.438;11.098;2023-01-10T08:30:41;19.80;61.10
38237;DHT22;50101;49.438;11.098;2023-01-10T08:33:09;19.80;61.10
38237;DHT22;50101;49.438;11.098;2023-01-10T08:35:37;19.80;61.10
38237;DHT22;50101;49.438;11.098;2023-01-10T08:38:04;19.70;61.10
38237;DHT22;50101;49.438;11.098;2023-01-10T08:40:31;19.70;61.20
38237;DHT22;50101;49.438;11.098;2023-01-10T08:43:00;19.70;60.60
38237;DHT22;50101;49.438;11.098;2023-01-10T08:45:27;19.70;61.10
38237;DHT22;50101;49.438;11.098;2023-01-10T08:47:54;19.70;61.60
38237;DHT22;50101;49.438;11.098;2023-01-10T08:50:22;19.80;61.10
38237;DHT22;50101;49.438;11.098;2023-01-10T08:52:49;19.70;60.90
38237;DHT22;50101;49.438;11.098;2023-01-10T08:55:17;19.70;60.90
38237;DHT22;50101;49.438;11.098;2023-01-10T08:57:44;19.80;61.10
38237;DHT22;50101;49.438;11.098;2023-01-10T09:00:11;19.80;61.20
38237;DHT22;50101;49.438;11.098;2023-01-10T09:02:39;19.70;61.10
38237;DHT22;50101;49.438;11.098;2023-01-10T09:05:06;19.70;61.20
38237;DHT22;50101;49.438;11.098;2023-01-10T09:07:47;19.70;61.20
38237;DHT22;50101;49.438;11.098;2023-01-10T09:10:14;19.70;61.40
38237;DHT22;50101;49.438;11.098;2023-01-10T09:12:40;19.70;61.70
38237;DHT22;50101;49.438;11.098;2023-01-10T09:15:28;19.80;61.60
38237;DHT22;50101;49.438;11.098;2023-01-10T09:17:57;19.80;61.30
38237;DHT22;50101;49.438;11.098;2023-01-10T09:20:26;19.80;60.70
38237;DHT22;50101;49.438;11.098;2023-01-10T09:22:54;19.70;61.20
38237;DHT22;50101;49.438;11.098;2023-01-10T09:25:22;19.60;61.10
38237;DHT22;50101;49.438;11.098;2023-01-10T09:27:55;19.70;61.20
38237;DHT22;50101;49.438;11.098;2023-01-10T09:30:23;19.60;61.10
38237;DHT22;50101;49.438;11.098;2023-01-10T09:32:50;19.70;61.20
38237;DHT22;50101;49.438;11.098;2023-01-10T09:35:17;19.60;61.10
38237;DHT22;50101;49.438;11.098;2023-01-10T09:37:44;19.70;61.10
38237;DHT22;50101;49.438;11.098;2023-01-10T09:40:16;19.60;60.90
38237;DHT22;50101;49.438;11.098;2023-01-10T09:48:22;19.60;60.80
38237;DHT22;50101;49.438;11.098;2023-01-10T09:53:30;19.60;60.50
38237;DHT22;50101;49.438;11.098;2023-01-10T09:56:00;19.60;60.60
38237;DHT22;50101;49.438;11.098;2023-01-10T09:58:29;19.60;59.80
38237;DHT22;50101;49.438;11.098;2023-01-10T10:01:14;19.60;60.30
38237;DHT22;50101;49.438;11.098;2023-01-10T10:03:53;19.60;60.30
38237;DHT22;50101;49.438;11.098;2023-01-10T10:06:23;19.60;60.20
38237;DHT22;50101;49.438;11.098;2023-01-10T10:08:51;19.60;59.90
38237;DHT22;50101;49.438;11.098;2023-01-10T10:19:59;19.60;60.20
38237;DHT22;50101;49.438;11.098;2023-01-10T10:31:27;19.60;60.20
38237;DHT22;50101;49.438;11.098;2023-01-10T10:39:20;19.60;60.10
38237;DHT22;50101;49.438;11.098;2023-01-10T10:41:51;19.50;59.90
38237;DHT22;50101;49.438;11.098;2023-01-10T10:44:36;19.50;60.00
38237;DHT22;50101;49.438;11.098;2023-01-10T10:47:16;19.60;60.10
38237;DHT22;50101;49.438;11.098;2023-01-10T10:49:54;19.50;60.10
38237;DHT22;50101;49.438;11.098;2023-01-10T10:52:28;19.50;60.10
38237;DHT22;50101;49.438;11.098;2023-01-10T10:55:02;19.50;60.10
38237;DHT22;50101;49.438;11.098;2023-01-10T10:57:31;19.50;60.00
38237;DHT22;50101;49.438;11.098;2023-01-10T11:00:01;19.50;60.10
38237;DHT22;50101;49.438;11.098;2023-01-10T11:02:31;19.50;60.30
38237;DHT22;50101;49.438;11.098;2023-01-10T11:05:07;19.50;60.20
38237;DHT22;50101;49.438;11.098;2023-01-10T11:07:39;19.50;60.20
38237;DHT22;50101;49.438;11.098;2023-01-10T11:10:24;19.50;60.30
38237;DHT22;50101;49.438;11.098;2023-01-10T11:13:04;19.50;60.20
38237;DHT22;50101;49.438;11.098;2023-01-10T11:15:42;19.50;60.20
38237;DHT22;50101;49.438;11.098;2023-01-10T11:18:14;19.50;61.00
38237;DHT22;50101;49.438;11.098;2023-01-10T11:23:53;19.50;60.20
38237;DHT22;50101;49.438;11.098;2023-01-10T11:26:26;19.50;59.70
38237;DHT22;50101;49.438;11.098;2023-01-10T11:29:07;19.50;60.20
38237;DHT22;50101;49.438;11.098;2023-01-10T11:31:35;19.50;60.80
38237;DHT22;50101;49.438;11.098;2023-01-10T11:34:05;19.40;60.00
38237;DHT22;50101;49.438;11.098;2023-01-10T11:37:03;19.50;59.90
38237;DHT22;50101;49.438;11.098;2023-01-10T11:39:31;19.50;60.00
38237;DHT22;50101;49.438;11.098;2023-01-10T11:44:50;19.50;60.10
38237;DHT22;50101;49.438;11.098;2023-01-10T11:47:17;19.40;59.90
38237;DHT22;50101;49.438;11.098;2023-01-10T11:49:47;19.40;60.00
38237;DHT22;50101;49.438;11.098;2023-01-10T11:52:24;19.40;60.00
38237;DHT22;50101;49.438;11.098;2023-01-10T11:54:57;19.40;59.90
38237;DHT22;50101;49.438;11.098;2023-01-10T11:57:28;19.40;59.80
38237;DHT22;50101;49.438;11.098;2023-01-10T12:00:05;19.40;59.80
38237;DHT22;50101;49.438;11.098;2023-01-10T12:02:41;19.40;59.80
38237;DHT22;50101;49.438;11.098;2023-01-10T12:05:10;19.40;59.80
38237;DHT22;50101;49.438;11.098;2023-01-10T12:08:03;19.40;59.70
38237;DHT22;50101;49.438;11.098;2023-01-10T12:10:33;19.40;59.70
38237;DHT22;50101;49.438;11.098;2023-01-10T12:13:20;19.40;59.70
38237;DHT22;50101;49.438;11.098;2023-01-10T12:15:47;19.40;59.50
38237;DHT22;50101;49.438;11.098;2023-01-10T12:18:14;19.40;59.50
38237;DHT22;50101;49.438;11.098;2023-01-10T12:20:50;19.40;59.60
38237;DHT22;50101;49.438;11.098;2023-01-10T12:23:20;19.40;59.60
38237;DHT22;50101;49.438;11.098;2023-01-10T12:25:50;19.40;59.60
38237;DHT22;50101;49.438;11.098;2023-01-10T12:28:34;19.40;59.60
38237;DHT22;50101;49.438;11.098;2023-01-10T12:31:03;19.40;59.50
38237;DHT22;50101;49.438;11.098;2023-01-10T12:33:37;19.40;59.50
38237;DHT22;50101;49.438;11.098;2023-01-10T12:50:30;19.40;59.40
38237;DHT22;50101;49.438;11.098;2023-01-10T12:55:38;19.30;59.20
38237;DHT22;50101;49.438;11.098;2023-01-10T12:58:38;19.40;59.30
38237;DHT22;50101;49.438;11.098;2023-01-10T13:01:14;19.30;59.40
38237;DHT22;50101;49.438;11.098;2023-01-10T13:03:43;19.30;59.70
38237;DHT22;50101;49.438;11.098;2023-01-10T13:06:39;19.30;59.70
38237;DHT22;50101;49.438;11.098;2023-01-10T13:09:18;19.30;59.90
38237;DHT22;50101;49.438;11.098;2023-01-10T13:11:58;19.30;59.70
38237;DHT22;50101;49.438;11.098;2023-01-10T13:14:35;19.30;59.70
38237;DHT22;50101;49.438;11.098;2023-01-10T13:22:43;19.20;59.30
38237;DHT22;50101;49.438;11.098;2023-01-10T13:27:58;19.20;59.10
38237;DHT22;50101;49.438;11.098;2023-01-10T13:30:31;19.20;59.00
38237;DHT22;50101;49.438;11.098;2023-01-10T13:33:02;19.20;59.10
38237;DHT22;50101;49.438;11.098;2023-01-10T13:35:38;19.10;58.70
38237;DHT22;50101;49.438;11.098;2023-01-10T13:38:21;19.20;58.20
38237;DHT22;50101;49.438;11.098;2023-01-10T13:40:57;19.20;58.30
38237;DHT22;50101;49.438;11.098;2023-01-10T13:43:58;19.20;58.40
38237;DHT22;50101;49.438;11.098;2023-01-10T13:51:20;19.30;58.40
38237;DHT22;50101;49.438;11.098;2023-01-10T13:56:40;19.20;58.30
38237;DHT22;50101;49.438;11.098;2023-01-10T14:02:23;19.20;58.30
38237;DHT22;50101;49.438;11.098;2023-01-10T14:05:07;19.20;58.30
38237;DHT22;50101;49.438;11.098;2023-01-10T14:07:50;19.20;58.30
38237;DHT22;50101;49.438;11.098;2023-01-10T14:10:27;19.20;58.30
38237;DHT22;50101;49.438;11.098;2023-01-10T14:13:01;19.20;58.30
38237;DHT22;50101;49.438;11.098;2023-01-10T14:15:39;19.20;57.80
38237;DHT22;50101;49.438;11.098;2023-01-10T14:18:19;19.20;58.30
38237;DHT22;50101;49.438;11.098;2023-01-10T14:20:59;19.20;58.30
38237;DHT22;50101;49.438;11.098;2023-01-10T14:23:41;19.20;57.80
38237;DHT22;50101;49.438;11.098;2023-01-10T14:26:36;19.20;58.30
38237;DHT22;50101;49.438;11.098;2023-01-10T14:29:08;19.20;58.30
38237;DHT22;50101;49.438;11.098;2023-01-10T14:31:47;19.20;58.30
38237;DHT22;50101;49.438;11.098;2023-01-10T14:34:23;19.30;58.40
38237;DHT22;50101;49.438;11.098;2023-01-10T14:37:07;19.20;58.60
38237;DHT22;50101;49.438;11.098;2023-01-10T14:39:35;19.20;58.80
38237;DHT22;50101;49.438;11.098;2023-01-10T14:42:05;19.20;58.90
38237;DHT22;50101;49.438;11.098;2023-01-10T14:44:43;19.20;58.50
38237;DHT22;50101;49.438;11.098;2023-01-10T14:47:31;19.20;59.00
38237;DHT22;50101;49.438;11.098;2023-01-10T14:49:59;19.20;59.00
38237;DHT22;50101;49.438;11.098;2023-01-10T14:52:27;19.20;59.10
38237;DHT22;50101;49.438;11.098;2023-01-10T14:55:23;19.20;59.20
38237;DHT22;50101;49.438;11.098;2023-01-10T14:57:55;19.30;59.40
38237;DHT22;50101;49.438;11.098;2023-01-10T15:00:31;19.30;59.40
38237;DHT22;50101;49.438;11.098;2023-01-10T15:02:59;19.20;59.50
38237;DHT22;50101;49.438;11.098;2023-01-10T15:05:36;19.30;59.50
38237;DHT22;50101;49.438;11.098;2023-01-10T15:08:33;19.30;60.20
38237;DHT22;50101;49.438;11.098;2023-01-10T15:11:05;19.20;60.30
38237;DHT22;50101;49.438;11.098;2023-01-10T15:13:37;19.20;60.50
38237;DHT22;50101;49.438;11.098;2023-01-10T15:16:06;19.30;60.80
38237;DHT22;50101;49.438;11.098;2023-01-10T15:18:40;19.30;60.80
38237;DHT22;50101;49.438;11.098;2023-01-10T15:21:11;19.30;61.00
38237;DHT22;50101;49.438;11.098;2023-01-10T15:23:41;19.30;61.10
38237;DHT22;50101;49.438;11.098;2023-01-10T15:26:18;19.30;61.10
38237;DHT22;50101;49.438;11.098;2023-01-10T15:29:01;19.30;61.30
38237;DHT22;50101;49.438;11.098;2023-01-10T15:31:28;19.30;61.60
38237;DHT22;50101;49.438;11.098;2023-01-10T15:33:57;19.20;61.30
38237;DHT22;50101;49.438;11.098;2023-01-10T15:36:25;19.30;61.30
38237;DHT22;50101;49.438;11.098;2023-01-10T15:38:53;19.30;62.00
38237;DHT22;50101;49.438;11.098;2023-01-10T15:41:21;19.20;61.20
38237;DHT22;50101;49.438;11.098;2023-01-10T15:43:49;19.20;61.20
38237;DHT22;50101;49.438;11.098;2023-01-10T15:46:20;19.20;60.50
38237;DHT22;50101;49.438;11.098;2023-01-10T15:49:01;19.20;61.20
38237;DHT22;50101;49.438;11.098;2023-01-10T15:51:34;19.20;61.10
38237;DHT22;50101;49.438;11.098;2023-01-10T15:54:05;19.20;61.00
38237;DHT22;50101;49.438;11.098;2023-01-10T15:57:05;19.20;60.90
38237;DHT22;50101;49.438;11.098;2023-01-10T15:59:37;19.20;60.90
38237;DHT22;50101;49.438;11.098;2023-01-10T16:02:42;19.20;60.80
38237;DHT22;50101;49.438;11.098;2023-01-10T16:05:14;19.20;60.80
38237;DHT22;50101;49.438;11.098;2023-01-10T16:07:45;19.20;60.80
38237;DHT22;50101;49.438;11.098;2023-01-10T16:10:18;19.20;60.70
38237;DHT22;50101;49.438;11.098;2023-01-10T16:12:46;19.20;60.70
38237;DHT22;50101;49.438;11.098;2023-01-10T16:15:33;19.20;60.70
38237;DHT22;50101;49.438;11.098;2023-01-10T16:18:03;19.20;60.70
38237;DHT22;50101;49.438;11.098;2023-01-10T16:20:41;19.20;60.70
38237;DHT22;50101;49.438;11.098;2023-01-10T16:23:27;19.20;60.70
38237;DHT22;50101;49.438;11.098;2023-01-10T16:25:59;19.20;60.70
38237;DHT22;50101;49.438;11.098;2023-01-10T16:28:27;19.20;60.70
38237;DHT22;50101;49.438;11.098;2023-01-10T16:30:56;19.20;60.60
38237;DHT22;50101;49.438;11.098;2023-01-10T16:33:24;19.20;60.60
38237;DHT22;50101;49.438;11.098;2023-01-10T16:35:54;19.20;60.50
38237;DHT22;50101;49.438;11.098;2023-01-10T16:38:23;19.20;60.50
38237;DHT22;50101;49.438;11.098;2023-01-10T16:41:01;19.20;60.60
38237;DHT22;50101;49.438;11.098;2023-01-10T16:43:50;19.20;60.60
38237;DHT22;50101;49.438;11.098;2023-01-10T16:46:39;19.20;60.60
38237;DHT22;50101;49.438;11.098;2023-01-10T16:49:05;19.20;60.60
38237;DHT22;50101;49.438;11.098;2023-01-10T16:51:37;19.20;60.50
38237;DHT22;50101;49.438;11.098;2023-01-10T16:54:04;19.10;60.40
38237;DHT22;50101;49.438;11.098;2023-01-10T16:56:31;19.10;60.30
38237;DHT22;50101;49.438;11.098;2023-01-10T16:58:57;19.10;60.20
38237;DHT22;50101;49.438;11.098;2023-01-10T17:01:30;19.10;60.30
38237;DHT22;50101;49.438;11.098;2023-01-10T17:03:58;19.20;60.40
38237;DHT22;50101;49.438;11.098;2023-01-10T17:06:25;19.10;60.20
38237;DHT22;50101;49.438;11.098;2023-01-10T17:08:51;19.10;60.10
38237;DHT22;50101;49.438;11.098;2023-01-10T17:11:27;22.00;63.20
38237;DHT22;50101;49.438;11.098;2023-01-10T17:13:56;19.10;59.70
38237;DHT22;50101;49.438;11.098;2023-01-10T17:16:23;19.10;60.30
38237;DHT22;50101;49.438;11.098;2023-01-10T17:18:50;19.10;60.20
38237;DHT22;50101;49.438;11.098;2023-01-10T17:21:19;19.10;60.30
38237;DHT22;50101;49.438;11.098;2023-01-10T17:23:47;19.10;60.30
38237;DHT22;50101;49.438;11.098;2023-01-10T17:26:15;19.10;59.60
38237;DHT22;50101;49.438;11.098;2023-01-10T17:28:43;19.10;60.30